createdAt,value
2019-02-23T00:00:53.908Z,94705.02
2019-02-23T00:15:51.073Z,94779.63
2019-02-23T00:30:50.665Z,94836.78
2019-02-23T00:45:50.648Z,94917.09
2019-02-23T01:00:51.070Z,94985.37
2019-02-23T01:15:50.931Z,95033.44
2019-02-23T01:30:50.833Z,95055.58
2019-02-23T01:45:52.545Z,95075.33
2019-02-23T02:00:53.298Z,95091.19
2019-02-23T02:15:55.656Z,95118.37
2019-02-23T02:45:51.025Z,95164.41
2019-02-23T03:00:51.427Z,95211.43
2019-02-23T03:15:51.320Z,95235.55
2019-02-23T03:30:50.230Z,95234.88
2019-02-23T03:45:51.279Z,95254.86
2019-02-23T04:00:53.807Z,95243.80
2019-02-23T04:15:51.509Z,95275.97
2019-02-23T04:30:51.483Z,95322.09
2019-02-23T04:45:51.398Z,95338.81
2019-02-23T05:00:51.768Z,95360.88
2019-02-23T05:15:51.644Z,95376.59
2019-02-23T05:30:51.530Z,95425.02
2019-02-23T05:45:51.417Z,95479.45
2019-02-23T06:00:51.265Z,95506.43
2019-02-23T06:15:52.346Z,95532.27
2019-02-23T06:30:51.212Z,95567.41
2019-02-23T06:45:51.125Z,95595.82
2019-02-23T07:00:51.164Z,95616.13
2019-02-23T07:15:53.420Z,95633.21
2019-02-23T07:30:52.927Z,95658.14
2019-02-23T07:45:53.413Z,95682.31
2019-02-23T08:00:51.307Z,95690.77
2019-02-23T08:15:51.672Z,95703.58
2019-02-23T08:30:51.608Z,95724.09
2019-02-23T08:45:53.530Z,95767.36
2019-02-23T09:00:51.475Z,95773.66
2019-02-23T09:15:50.878Z,95807.89
2019-02-23T09:30:50.785Z,95809.77
2019-02-23T09:45:50.646Z,95815.38
2019-02-23T10:00:51.825Z,95827.40
2019-02-23T10:15:51.032Z,95826.33
2019-02-23T10:30:50.956Z,95841.39
2019-02-23T10:45:50.863Z,95842.42
2019-02-23T11:00:50.913Z,95846.19
2019-02-23T11:15:50.876Z,95850.59
2019-02-23T11:30:50.799Z,95843.47
2019-02-23T11:45:51.773Z,95848.24
2019-02-23T12:00:50.644Z,95855.53
2019-02-23T12:15:51.587Z,95869.80
2019-02-23T12:30:51.500Z,95867.58
2019-02-23T12:45:51.487Z,95876.69
2019-02-23T13:00:51.384Z,95873.80
2019-02-23T13:45:58.437Z,95910.92
2019-02-23T16:00:51.144Z,96016.64
2019-02-23T16:15:51.436Z,96045.49
2019-02-23T16:30:53.349Z,96065.91
2019-02-23T16:45:51.578Z,96078.64
2019-02-23T17:00:51.200Z,96104.77
2019-02-23T17:15:51.508Z,96107.71
2019-02-23T17:30:51.481Z,96125.02
2019-02-23T17:45:51.472Z,96122.68
2019-02-23T18:00:51.376Z,96115.47
2019-02-23T18:15:52.004Z,96132.02
2019-02-23T18:30:50.784Z,96125.66
2019-02-23T18:45:51.755Z,96136.00
2019-02-23T19:00:57.644Z,96139.81
2019-02-23T19:15:50.980Z,96168.91
2019-02-23T19:30:51.161Z,96158.35
2019-02-23T19:45:50.967Z,96168.59
2019-02-23T20:00:50.827Z,96160.39
2019-02-23T20:15:51.239Z,96157.72
2019-02-23T20:30:56.661Z,96184.31
2019-02-23T20:45:51.056Z,96178.01
2019-02-23T21:00:51.189Z,96168.91
2019-02-23T21:15:51.479Z,96162.81
2019-02-23T21:30:51.451Z,96161.30
2019-02-23T21:45:51.356Z,96150.81
2019-02-23T22:00:52.212Z,96149.16
2019-02-23T22:15:53.622Z,96145.16
2019-02-23T22:30:52.400Z,96151.86
2019-02-23T22:45:51.419Z,96148.14
2019-02-23T23:00:54.477Z,96143.59
2019-02-23T23:15:50.811Z,96131.63
2019-02-23T23:30:50.717Z,96151.48
2019-02-23T23:45:51.635Z,96158.52
